sensor_id;sensor_type;location;lat;lon;timestamp;temperature;humidity
42617;DHT22;28250;52.320;0.360;2023-05-10T00:00:59;10.50;99.90
42617;DHT22;28250;52.320;0.360;2023-05-10T00:03:25;10.60;99.90
42617;DHT22;28250;52.320;0.360;2023-05-10T00:05:51;10.60;99.90
42617;DHT22;28250;52.320;0.360;2023-05-10T00:08:17;10.50;99.90
42617;DHT22;28250;52.320;0.360;2023-05-10T00:10:43;10.50;99.90
42617;DHT22;28250;52.320;0.360;2023-05-10T00:13:09;10.50;99.90
42617;DHT22;28250;52.320;0.360;2023-05-10T00:15:35;10.60;99.90
42617;DHT22;28250;52.320;0.360;2023-05-10T00:18:02;10.60;99.90
42617;DHT22;28250;52.320;0.360;2023-05-10T00:20:28;10.60;99.90
42617;DHT22;28250;52.320;0.360;2023-05-10T00:22:54;10.50;99.90
42617;DHT22;28250;52.320;0.360;2023-05-10T00:25:20;10.60;99.90
42617;DHT22;28250;52.320;0.360;2023-05-10T00:27:47;10.60;99.90
42617;DHT22;28250;52.320;0.360;2023-05-10T00:30:14;10.60;99.90
42617;DHT22;28250;52.320;0.360;2023-05-10T00:32:39;10.60;99.90
42617;DHT22;28250;52.320;0.360;2023-05-10T00:35:06;10.60;99.90
42617;DHT22;28250;52.320;0.360;2023-05-10T00:37:32;10.50;99.90
42617;DHT22;28250;52.320;0.360;2023-05-10T00:39:59;10.60;99.90
42617;DHT22;28250;52.320;0.360;2023-05-10T00:42:26;10.60;99.90
42617;DHT22;28250;52.320;0.360;2023-05-10T00:44:53;10.60;99.90
42617;DHT22;28250;52.320;0.360;2023-05-10T00:47:19;10.60;99.90
42617;DHT22;28250;52.320;0.360;2023-05-10T00:49:45;10.60;99.90
42617;DHT22;28250;52.320;0.360;2023-05-10T00:52:11;10.50;99.90
42617;DHT22;28250;52.320;0.360;2023-05-10T00:54:37;10.50;99.90
42617;DHT22;28250;52.320;0.360;2023-05-10T00:57:04;10.60;99.90
42617;DHT22;28250;52.320;0.360;2023-05-10T00:59:30;10.60;99.90
42617;DHT22;28250;52.320;0.360;2023-05-10T01:01:57;10.50;99.90
42617;DHT22;28250;52.320;0.360;2023-05-10T01:04:23;10.50;99.90
42617;DHT22;28250;52.320;0.360;2023-05-10T01:06:53;10.50;99.90
42617;DHT22;28250;52.320;0.360;2023-05-10T01:09:22;10.60;99.90
42617;DHT22;28250;52.320;0.360;2023-05-10T01:11:48;10.60;99.90
42617;DHT22;28250;52.320;0.360;2023-05-10T01:14:16;10.60;99.90
42617;DHT22;28250;52.320;0.360;2023-05-10T01:16:44;10.60;99.90
42617;DHT22;28250;52.320;0.360;2023-05-10T01:34:09;11.00;99.90
42617;DHT22;28250;52.320;0.360;2023-05-10T01:37:02;11.10;99.90
42617;DHT22;28250;52.320;0.360;2023-05-10T01:39:44;11.10;99.90
42617;DHT22;28250;52.320;0.360;2023-05-10T01:42:25;11.10;99.90
42617;DHT22;28250;52.320;0.360;2023-05-10T01:48:09;11.10;99.90
42617;DHT22;28250;52.320;0.360;2023-05-10T01:50:39;11.10;99.90
42617;DHT22;28250;52.320;0.360;2023-05-10T01:53:08;11.20;99.90
42617;DHT22;28250;52.320;0.360;2023-05-10T01:55:42;11.10;99.90
42617;DHT22;28250;52.320;0.360;2023-05-10T01:58:14;11.10;99.90
42617;DHT22;28250;52.320;0.360;2023-05-10T02:00:44;11.00;99.90
42617;DHT22;28250;52.320;0.360;2023-05-10T02:03:12;11.00;99.90
42617;DHT22;28250;52.320;0.360;2023-05-10T02:05:40;10.90;99.90
42617;DHT22;28250;52.320;0.360;2023-05-10T02:08:07;10.90;99.90
42617;DHT22;28250;52.320;0.360;2023-05-10T02:10:36;10.80;99.90
42617;DHT22;28250;52.320;0.360;2023-05-10T02:13:04;10.80;99.90
42617;DHT22;28250;52.320;0.360;2023-05-10T02:15:32;10.70;99.90
42617;DHT22;28250;52.320;0.360;2023-05-10T02:18:00;10.70;99.90
42617;DHT22;28250;52.320;0.360;2023-05-10T02:20:29;10.60;99.90
42617;DHT22;28250;52.320;0.360;2023-05-10T02:22:57;10.60;99.90
42617;DHT22;28250;52.320;0.360;2023-05-10T02:25:25;10.60;99.90
42617;DHT22;28250;52.320;0.360;2023-05-10T02:27:55;10.50;99.90
42617;DHT22;28250;52.320;0.360;2023-05-10T02:30:22;10.40;99.90
42617;DHT22;28250;52.320;0.360;2023-05-10T02:32:50;10.40;99.90
42617;DHT22;28250;52.320;0.360;2023-05-10T02:35:17;10.30;99.90
42617;DHT22;28250;52.320;0.360;2023-05-10T02:37:45;10.30;99.90
42617;DHT22;28250;52.320;0.360;2023-05-10T02:40:13;10.20;99.90
42617;DHT22;28250;52.320;0.360;2023-05-10T02:42:42;10.10;99.90
42617;DHT22;28250;52.320;0.360;2023-05-10T02:45:13;10.10;99.90
42617;DHT22;28250;52.320;0.360;2023-05-10T02:47:41;10.00;99.90
42617;DHT22;28250;52.320;0.360;2023-05-10T02:50:08;9.90;99.90
42617;DHT22;28250;52.320;0.360;2023-05-10T02:52:40;9.90;99.90
42617;DHT22;28250;52.320;0.360;2023-05-10T02:55:11;9.80;99.90
42617;DHT22;28250;52.320;0.360;2023-05-10T02:57:51;9.80;99.90
42617;DHT22;28250;52.320;0.360;2023-05-10T03:00:18;9.70;99.90
42617;DHT22;28250;52.320;0.360;2023-05-10T03:02:44;9.70;99.90
42617;DHT22;28250;52.320;0.360;2023-05-10T03:05:10;9.60;99.90
42617;DHT22;28250;52.320;0.360;2023-05-10T03:07:36;9.60;99.90
42617;DHT22;28250;52.320;0.360;2023-05-10T03:10:03;9.50;99.90
42617;DHT22;28250;52.320;0.360;2023-05-10T03:12:47;9.50;99.90
42617;DHT22;28250;52.320;0.360;2023-05-10T03:18:54;9.40;99.90
42617;DHT22;28250;52.320;0.360;2023-05-10T03:21:22;9.30;99.90
42617;DHT22;28250;52.320;0.360;2023-05-10T03:23:59;9.30;99.90
42617;DHT22;28250;52.320;0.360;2023-05-10T03:26:37;9.30;99.90
42617;DHT22;28250;52.320;0.360;2023-05-10T03:29:09;9.20;99.90
42617;DHT22;28250;52.320;0.360;2023-05-10T03:31:36;9.20;99.90
42617;DHT22;28250;52.320;0.360;2023-05-10T03:34:04;9.20;99.90
42617;DHT22;28250;52.320;0.360;2023-05-10T03:36:30;9.10;99.90
42617;DHT22;28250;52.320;0.360;2023-05-10T03:38:56;9.10;99.90
42617;DHT22;28250;52.320;0.360;2023-05-10T03:41:22;9.00;99.90
42617;DHT22;28250;52.320;0.360;2023-05-10T03:43:48;9.00;99.90
42617;DHT22;28250;52.320;0.360;2023-05-10T03:46:14;9.00;99.90
42617;DHT22;28250;52.320;0.360;2023-05-10T03:48:40;8.90;99.90
42617;DHT22;28250;52.320;0.360;2023-05-10T03:51:06;8.80;99.90
42617;DHT22;28250;52.320;0.360;2023-05-10T03:53:32;8.80;99.90
42617;DHT22;28250;52.320;0.360;2023-05-10T03:55:58;8.70;99.90
42617;DHT22;28250;52.320;0.360;2023-05-10T03:58:24;8.70;99.90
42617;DHT22;28250;52.320;0.360;2023-05-10T04:00:51;8.60;99.90
42617;DHT22;28250;52.320;0.360;2023-05-10T04:03:17;8.60;99.90
42617;DHT22;28250;52.320;0.360;2023-05-10T04:05:43;8.60;99.90
42617;DHT22;28250;52.320;0.360;2023-05-10T04:08:09;8.60;99.90
42617;DHT22;28250;52.320;0.360;2023-05-10T04:10:36;8.60;99.90
42617;DHT22;28250;52.320;0.360;2023-05-10T04:13:02;8.50;99.90
42617;DHT22;28250;52.320;0.360;2023-05-10T04:15:28;8.50;99.90
42617;DHT22;28250;52.320;0.360;2023-05-10T04:17:54;8.40;99.90
42617;DHT22;28250;52.320;0.360;2023-05-10T04:20:20;8.40;99.90
42617;DHT22;28250;52.320;0.360;2023-05-10T04:22:46;8.30;99.90
42617;DHT22;28250;52.320;0.360;2023-05-10T04:25:12;8.30;99.90
42617;DHT22;28250;52.320;0.360;2023-05-10T04:27:38;8.30;99.90
42617;DHT22;28250;52.320;0.360;2023-05-10T04:30:06;8.20;99.90
42617;DHT22;28250;52.320;0.360;2023-05-10T04:32:33;8.20;99.90
42617;DHT22;28250;52.320;0.360;2023-05-10T04:34:59;8.10;99.90
42617;DHT22;28250;52.320;0.360;2023-05-10T04:37:25;8.10;99.90
42617;DHT22;28250;52.320;0.360;2023-05-10T04:39:51;8.00;99.90
42617;DHT22;28250;52.320;0.360;2023-05-10T04:42:17;8.00;99.90
42617;DHT22;28250;52.320;0.360;2023-05-10T04:44:43;8.00;99.90
42617;DHT22;28250;52.320;0.360;2023-05-10T04:47:09;7.90;99.90
42617;DHT22;28250;52.320;0.360;2023-05-10T04:49:35;7.90;99.90
42617;DHT22;28250;52.320;0.360;2023-05-10T04:52:01;7.90;99.90
42617;DHT22;28250;52.320;0.360;2023-05-10T04:54:27;7.90;99.90
42617;DHT22;28250;52.320;0.360;2023-05-10T04:56:53;7.90;99.90
42617;DHT22;28250;52.320;0.360;2023-05-10T04:59:19;8.00;99.90
42617;DHT22;28250;52.320;0.360;2023-05-10T05:01:45;8.00;99.90
42617;DHT22;28250;52.320;0.360;2023-05-10T05:04:11;8.00;99.90
42617;DHT22;28250;52.320;0.360;2023-05-10T05:06:39;8.00;99.90
42617;DHT22;28250;52.320;0.360;2023-05-10T05:09:07;8.00;99.90
42617;DHT22;28250;52.320;0.360;2023-05-10T05:11:35;8.10;99.90
42617;DHT22;28250;52.320;0.360;2023-05-10T05:14:01;8.00;99.90
42617;DHT22;28250;52.320;0.360;2023-05-10T05:16:29;8.10;99.90
42617;DHT22;28250;52.320;0.360;2023-05-10T05:18:56;8.20;99.90
42617;DHT22;28250;52.320;0.360;2023-05-10T05:21:22;8.20;99.90
42617;DHT22;28250;52.320;0.360;2023-05-10T05:23:49;8.20;99.90
42617;DHT22;28250;52.320;0.360;2023-05-10T05:26:15;8.30;99.90
42617;DHT22;28250;52.320;0.360;2023-05-10T05:28:42;8.40;99.90
42617;DHT22;28250;52.320;0.360;2023-05-10T05:31:08;8.50;99.90
42617;DHT22;28250;52.320;0.360;2023-05-10T05:33:34;8.60;99.90
42617;DHT22;28250;52.320;0.360;2023-05-10T05:36:01;8.70;99.90
42617;DHT22;28250;52.320;0.360;2023-05-10T05:38:28;8.70;99.90
42617;DHT22;28250;52.320;0.360;2023-05-10T05:40:54;8.80;99.90
42617;DHT22;28250;52.320;0.360;2023-05-10T05:43:20;8.90;99.90
42617;DHT22;28250;52.320;0.360;2023-05-10T05:45:46;9.00;99.90
42617;DHT22;28250;52.320;0.360;2023-05-10T05:48:12;9.00;99.90
42617;DHT22;28250;52.320;0.360;2023-05-10T05:50:38;9.10;99.90
42617;DHT22;28250;52.320;0.360;2023-05-10T05:53:04;9.30;99.90
42617;DHT22;28250;52.320;0.360;2023-05-10T05:55:30;9.40;99.90
42617;DHT22;28250;52.320;0.360;2023-05-10T05:57:57;9.90;99.90
42617;DHT22;28250;52.320;0.360;2023-05-10T06:00:24;11.10;99.90
42617;DHT22;28250;52.320;0.360;2023-05-10T06:02:50;12.20;99.90
42617;DHT22;28250;52.320;0.360;2023-05-10T06:05:16;13.10;99.90
42617;DHT22;28250;52.320;0.360;2023-05-10T06:07:42;13.30;99.90
42617;DHT22;28250;52.320;0.360;2023-05-10T06:10:09;13.60;99.90
42617;DHT22;28250;52.320;0.360;2023-05-10T06:12:35;14.40;99.90
42617;DHT22;28250;52.320;0.360;2023-05-10T06:15:02;14.30;99.90
42617;DHT22;28250;52.320;0.360;2023-05-10T06:17:29;14.20;99.90
42617;DHT22;28250;52.320;0.360;2023-05-10T06:19:56;14.40;99.90
42617;DHT22;28250;52.320;0.360;2023-05-10T06:22:22;14.70;99.90
42617;DHT22;28250;52.320;0.360;2023-05-10T06:24:48;14.60;99.90
42617;DHT22;28250;52.320;0.360;2023-05-10T06:27:15;15.00;99.90
42617;DHT22;28250;52.320;0.360;2023-05-10T06:29:41;15.20;99.90
42617;DHT22;28250;52.320;0.360;2023-05-10T06:32:07;15.40;99.90
42617;DHT22;28250;52.320;0.360;2023-05-10T06:34:33;15.70;99.90
42617;DHT22;28250;52.320;0.360;2023-05-10T06:37:00;15.70;99.90
42617;DHT22;28250;52.320;0.360;2023-05-10T06:39:26;15.30;99.90
42617;DHT22;28250;52.320;0.360;2023-05-10T06:41:51;15.50;99.90
42617;DHT22;28250;52.320;0.360;2023-05-10T06:44:18;15.60;99.90
42617;DHT22;28250;52.320;0.360;2023-05-10T06:46:44;15.40;99.90
42617;DHT22;28250;52.320;0.360;2023-05-10T06:49:10;14.80;99.90
42617;DHT22;28250;52.320;0.360;2023-05-10T06:51:36;15.20;99.90
42617;DHT22;28250;52.320;0.360;2023-05-10T06:54:02;14.90;99.90
42617;DHT22;28250;52.320;0.360;2023-05-10T06:56:28;14.70;99.90
42617;DHT22;28250;52.320;0.360;2023-05-10T06:58:54;14.90;99.90
42617;DHT22;28250;52.320;0.360;2023-05-10T07:01:21;15.10;99.90
42617;DHT22;28250;52.320;0.360;2023-05-10T07:03:47;15.10;99.90
42617;DHT22;28250;52.320;0.360;2023-05-10T07:06:13;15.60;99.90
42617;DHT22;28250;52.320;0.360;2023-05-10T07:08:39;14.30;99.90
42617;DHT22;28250;52.320;0.360;2023-05-10T07:11:06;14.50;99.90
42617;DHT22;28250;52.320;0.360;2023-05-10T07:13:33;13.90;99.90
42617;DHT22;28250;52.320;0.360;2023-05-10T07:16:00;14.60;99.90
42617;DHT22;28250;52.320;0.360;2023-05-10T07:18:26;15.30;99.90
42617;DHT22;28250;52.320;0.360;2023-05-10T07:20:52;15.30;99.90
42617;DHT22;28250;52.320;0.360;2023-05-10T07:23:18;15.90;99.90
42617;DHT22;28250;52.320;0.360;2023-05-10T07:25:48;15.90;99.90
42617;DHT22;28250;52.320;0.360;2023-05-10T07:28:15;15.20;99.90
42617;DHT22;28250;52.320;0.360;2023-05-10T07:30:42;15.00;99.90
42617;DHT22;28250;52.320;0.360;2023-05-10T07:33:09;14.40;99.90
42617;DHT22;28250;52.320;0.360;2023-05-10T07:35:35;14.40;99.90
42617;DHT22;28250;52.320;0.360;2023-05-10T07:38:02;14.20;99.90
42617;DHT22;28250;52.320;0.360;2023-05-10T07:40:28;13.80;99.90
42617;DHT22;28250;52.320;0.360;2023-05-10T07:42:55;13.70;99.90
42617;DHT22;28250;52.320;0.360;2023-05-10T07:45:21;13.60;99.90
42617;DHT22;28250;52.320;0.360;2023-05-10T07:47:47;13.50;99.90
42617;DHT22;28250;52.320;0.360;2023-05-10T07:50:13;13.40;99.90
42617;DHT22;28250;52.320;0.360;2023-05-10T07:52:39;13.40;99.90
42617;DHT22;28250;52.320;0.360;2023-05-10T07:55:06;13.40;99.90
42617;DHT22;28250;52.320;0.360;2023-05-10T07:57:34;13.50;99.90
42617;DHT22;28250;52.320;0.360;2023-05-10T08:00:00;13.80;99.90
42617;DHT22;28250;52.320;0.360;2023-05-10T08:02:26;13.80;99.90
42617;DHT22;28250;52.320;0.360;2023-05-10T08:04:52;13.90;99.90
42617;DHT22;28250;52.320;0.360;2023-05-10T08:07:18;13.70;99.90
42617;DHT22;28250;52.320;0.360;2023-05-10T08:09:44;13.80;99.90
42617;DHT22;28250;52.320;0.360;2023-05-10T08:12:10;13.60;99.90
42617;DHT22;28250;52.320;0.360;2023-05-10T08:14:36;13.70;99.90
42617;DHT22;28250;52.320;0.360;2023-05-10T08:17:03;13.70;99.90
42617;DHT22;28250;52.320;0.360;2023-05-10T08:19:29;13.70;99.90
42617;DHT22;28250;52.320;0.360;2023-05-10T08:21:55;13.70;99.90
42617;DHT22;28250;52.320;0.360;2023-05-10T08:24:22;13.80;99.90
42617;DHT22;28250;52.320;0.360;2023-05-10T08:26:48;13.80;99.90
42617;DHT22;28250;52.320;0.360;2023-05-10T08:29:14;14.10;99.90
42617;DHT22;28250;52.320;0.360;2023-05-10T08:31:41;14.20;99.90
42617;DHT22;28250;52.320;0.360;2023-05-10T08:34:07;14.20;99.90
42617;DHT22;28250;52.320;0.360;2023-05-10T08:36:33;14.40;99.90
42617;DHT22;28250;52.320;0.360;2023-05-10T08:38:59;14.50;99.90
42617;DHT22;28250;52.320;0.360;2023-05-10T08:41:26;14.50;99.90
42617;DHT22;28250;52.320;0.360;2023-05-10T08:43:53;14.60;99.90
42617;DHT22;28250;52.320;0.360;2023-05-10T08:46:20;14.60;99.90
42617;DHT22;28250;52.320;0.360;2023-05-10T08:48:49;14.60;99.90
42617;DHT22;28250;52.320;0.360;2023-05-10T08:51:23;14.70;99.90
42617;DHT22;28250;52.320;0.360;2023-05-10T08:53:52;14.80;99.90
42617;DHT22;28250;52.320;0.360;2023-05-10T08:56:19;14.80;99.90
42617;DHT22;28250;52.320;0.360;2023-05-10T08:58:45;14.70;99.90
42617;DHT22;28250;52.320;0.360;2023-05-10T09:01:13;14.70;99.90
42617;DHT22;28250;52.320;0.360;2023-05-10T09:03:41;14.90;99.90
42617;DHT22;28250;52.320;0.360;2023-05-10T09:06:07;15.40;99.90
42617;DHT22;28250;52.320;0.360;2023-05-10T09:08:34;15.40;99.90
42617;DHT22;28250;52.320;0.360;2023-05-10T09:11:00;15.60;99.90
42617;DHT22;28250;52.320;0.360;2023-05-10T09:13:27;15.70;99.90
42617;DHT22;28250;52.320;0.360;2023-05-10T09:15:54;15.50;99.90
42617;DHT22;28250;52.320;0.360;2023-05-10T09:18:20;15.70;99.90
42617;DHT22;28250;52.320;0.360;2023-05-10T09:20:46;15.90;99.90
42617;DHT22;28250;52.320;0.360;2023-05-10T09:23:12;15.70;99.90
42617;DHT22;28250;52.320;0.360;2023-05-10T09:25:38;15.90;99.90
42617;DHT22;28250;52.320;0.360;2023-05-10T09:28:08;16.00;99.90
42617;DHT22;28250;52.320;0.360;2023-05-10T09:30:35;15.90;99.90
42617;DHT22;28250;52.320;0.360;2023-05-10T09:33:02;16.00;99.90
42617;DHT22;28250;52.320;0.360;2023-05-10T09:35:30;16.40;99.90
42617;DHT22;28250;52.320;0.360;2023-05-10T09:38:00;16.50;99.90
42617;DHT22;28250;52.320;0.360;2023-05-10T09:40:28;16.60;99.90
42617;DHT22;28250;52.320;0.360;2023-05-10T09:42:58;16.80;99.90
42617;DHT22;28250;52.320;0.360;2023-05-10T09:45:26;17.20;99.90
42617;DHT22;28250;52.320;0.360;2023-05-10T09:47:53;17.60;99.90
42617;DHT22;28250;52.320;0.360;2023-05-10T09:50:20;17.60;99.90
42617;DHT22;28250;52.320;0.360;2023-05-10T09:52:59;16.80;99.90
42617;DHT22;28250;52.320;0.360;2023-05-10T09:55:41;16.90;99.90
42617;DHT22;28250;52.320;0.360;2023-05-10T09:58:11;17.00;99.90
42617;DHT22;28250;52.320;0.360;2023-05-10T10:00:40;17.40;99.90
42617;DHT22;28250;52.320;0.360;2023-05-10T10:03:15;17.70;99.90
42617;DHT22;28250;52.320;0.360;2023-05-10T10:05:44;17.40;99.90
42617;DHT22;28250;52.320;0.360;2023-05-10T10:08:11;17.10;99.90
42617;DHT22;28250;52.320;0.360;2023-05-10T10:10:38;17.70;99.90
42617;DHT22;28250;52.320;0.360;2023-05-10T10:13:06;18.30;99.90
42617;DHT22;28250;52.320;0.360;2023-05-10T10:15:34;17.90;99.90
42617;DHT22;28250;52.320;0.360;2023-05-10T10:18:01;17.00;99.90
42617;DHT22;28250;52.320;0.360;2023-05-10T10:20:29;16.80;99.90
42617;DHT22;28250;52.320;0.360;2023-05-10T10:22:55;17.40;99.90
42617;DHT22;28250;52.320;0.360;2023-05-10T10:25:22;18.30;99.90
42617;DHT22;28250;52.320;0.360;2023-05-10T10:30:52;19.10;99.90
42617;DHT22;28250;52.320;0.360;2023-05-10T10:36:07;18.60;99.90
42617;DHT22;28250;52.320;0.360;2023-05-10T10:41:29;18.50;99.90
42617;DHT22;28250;52.320;0.360;2023-05-10T10:52:25;19.90;99.90
42617;DHT22;28250;52.320;0.360;2023-05-10T10:57:47;20.50;99.90
42617;DHT22;28250;52.320;0.360;2023-05-10T11:05:42;19.60;99.90
42617;DHT22;28250;52.320;0.360;2023-05-10T11:08:30;19.20;99.90
42617;DHT22;28250;52.320;0.360;2023-05-10T11:18:36;21.20;99.90
42617;DHT22;28250;52.320;0.360;2023-05-10T11:21:03;21.70;99.90
42617;DHT22;28250;52.320;0.360;2023-05-10T11:23:32;20.40;99.90
42617;DHT22;28250;52.320;0.360;2023-05-10T11:26:13;18.90;99.90
42617;DHT22;28250;52.320;0.360;2023-05-10T11:28:49;19.30;99.90
42617;DHT22;28250;52.320;0.360;2023-05-10T11:31:16;19.90;99.90
42617;DHT22;28250;52.320;0.360;2023-05-10T11:33:44;20.50;99.90
42617;DHT22;28250;52.320;0.360;2023-05-10T11:36:19;20.40;99.90
42617;DHT22;28250;52.320;0.360;2023-05-10T11:38:56;20.80;99.90
42617;DHT22;28250;52.320;0.360;2023-05-10T11:41:23;20.70;99.90
42617;DHT22;28250;52.320;0.360;2023-05-10T11:43:51;20.70;99.90
42617;DHT22;28250;52.320;0.360;2023-05-10T11:46:20;20.50;99.90
42617;DHT22;28250;52.320;0.360;2023-05-10T11:48:51;21.10;99.90
42617;DHT22;28250;52.320;0.360;2023-05-10T11:51:23;21.20;99.90
42617;DHT22;28250;52.320;0.360;2023-05-10T11:53:54;19.90;99.90
42617;DHT22;28250;52.320;0.360;2023-05-10T11:56:21;19.00;99.90
42617;DHT22;28250;52.320;0.360;2023-05-10T11:58:55;19.70;99.90
42617;DHT22;28250;52.320;0.360;2023-05-10T12:01:26;21.30;99.90
42617;DHT22;28250;52.320;0.360;2023-05-10T12:03:54;21.30;99.90
42617;DHT22;28250;52.320;0.360;2023-05-10T12:06:29;20.70;99.90
42617;DHT22;28250;52.320;0.360;2023-05-10T12:08:57;20.60;99.90
42617;DHT22;28250;52.320;0.360;2023-05-10T12:11:28;21.40;99.90
42617;DHT22;28250;52.320;0.360;2023-05-10T12:13:55;21.20;99.90
42617;DHT22;28250;52.320;0.360;2023-05-10T12:16:23;20.80;99.90
42617;DHT22;28250;52.320;0.360;2023-05-10T12:18:52;20.90;99.90
42617;DHT22;28250;52.320;0.360;2023-05-10T12:21:20;21.00;99.90
42617;DHT22;28250;52.320;0.360;2023-05-10T12:23:46;20.40;99.90
42617;DHT22;28250;52.320;0.360;2023-05-10T12:26:13;20.50;99.90
42617;DHT22;28250;52.320;0.360;2023-05-10T12:28:39;20.40;99.90
42617;DHT22;28250;52.320;0.360;2023-05-10T12:31:06;20.20;99.90
42617;DHT22;28250;52.320;0.360;2023-05-10T12:33:43;19.80;99.90
42617;DHT22;28250;52.320;0.360;2023-05-10T12:36:11;19.50;99.90
42617;DHT22;28250;52.320;0.360;2023-05-10T12:38:43;19.00;99.90
42617;DHT22;28250;52.320;0.360;2023-05-10T12:41:16;19.00;99.90
42617;DHT22;28250;52.320;0.360;2023-05-10T12:43:43;18.70;99.90
42617;DHT22;28250;52.320;0.360;2023-05-10T12:46:12;18.70;99.90
42617;DHT22;28250;52.320;0.360;2023-05-10T12:48:40;19.20;99.90
42617;DHT22;28250;52.320;0.360;2023-05-10T12:51:07;19.20;99.90
42617;DHT22;28250;52.320;0.360;2023-05-10T12:53:45;19.10;99.90
42617;DHT22;28250;52.320;0.360;2023-05-10T12:56:13;18.80;99.90
42617;DHT22;28250;52.320;0.360;2023-05-10T12:58:39;19.10;99.90
42617;DHT22;28250;52.320;0.360;2023-05-10T13:01:06;19.30;99.90
42617;DHT22;28250;52.320;0.360;2023-05-10T13:03:32;19.80;99.90
42617;DHT22;28250;52.320;0.360;2023-05-10T13:05:58;20.20;99.90
42617;DHT22;28250;52.320;0.360;2023-05-10T13:08:24;19.50;99.90
42617;DHT22;28250;52.320;0.360;2023-05-10T13:10:50;19.80;99.90
42617;DHT22;28250;52.320;0.360;2023-05-10T13:13:16;20.20;99.90
42617;DHT22;28250;52.320;0.360;2023-05-10T13:15:43;20.10;99.90
42617;DHT22;28250;52.320;0.360;2023-05-10T13:18:09;19.80;99.90
42617;DHT22;28250;52.320;0.360;2023-05-10T13:20:35;19.60;99.90
42617;DHT22;28250;52.320;0.360;2023-05-10T13:23:01;19.60;99.90
42617;DHT22;28250;52.320;0.360;2023-05-10T13:25:28;19.70;99.90
42617;DHT22;28250;52.320;0.360;2023-05-10T13:27:54;19.60;99.90
42617;DHT22;28250;52.320;0.360;2023-05-10T13:30:20;19.50;99.90
42617;DHT22;28250;52.320;0.360;2023-05-10T13:32:46;19.60;99.90
42617;DHT22;28250;52.320;0.360;2023-05-10T13:35:12;19.90;99.90
42617;DHT22;28250;52.320;0.360;2023-05-10T13:37:38;19.10;99.90
42617;DHT22;28250;52.320;0.360;2023-05-10T13:40:04;19.60;99.90
42617;DHT22;28250;52.320;0.360;2023-05-10T13:42:31;19.50;99.90
42617;DHT22;28250;52.320;0.360;2023-05-10T13:45:00;18.80;99.90
42617;DHT22;28250;52.320;0.360;2023-05-10T13:47:28;18.90;99.90
42617;DHT22;28250;52.320;0.360;2023-05-10T13:49:54;19.10;99.90
42617;DHT22;28250;52.320;0.360;2023-05-10T13:52:20;19.20;99.90
42617;DHT22;28250;52.320;0.360;2023-05-10T13:54:46;19.40;99.90
42617;DHT22;28250;52.320;0.360;2023-05-10T13:57:12;19.20;99.90
42617;DHT22;28250;52.320;0.360;2023-05-10T13:59:39;18.40;99.90
42617;DHT22;28250;52.320;0.360;2023-05-10T14:02:06;17.90;99.90
42617;DHT22;28250;52.320;0.360;2023-05-10T14:04:32;17.80;99.90
42617;DHT22;28250;52.320;0.360;2023-05-10T14:06:59;17.50;99.90
42617;DHT22;28250;52.320;0.360;2023-05-10T14:09:25;17.50;99.90
42617;DHT22;28250;52.320;0.360;2023-05-10T14:11:51;18.00;99.90
42617;DHT22;28250;52.320;0.360;2023-05-10T14:14:17;18.40;99.90
42617;DHT22;28250;52.320;0.360;2023-05-10T14:16:44;19.00;99.90
42617;DHT22;28250;52.320;0.360;2023-05-10T14:19:11;19.40;99.90
42617;DHT22;28250;52.320;0.360;2023-05-10T14:21:37;20.10;99.90
42617;DHT22;28250;52.320;0.360;2023-05-10T14:24:03;20.70;99.90
42617;DHT22;28250;52.320;0.360;2023-05-10T14:26:30;20.40;99.90
42617;DHT22;28250;52.320;0.360;2023-05-10T14:28:56;19.80;99.90
42617;DHT22;28250;52.320;0.360;2023-05-10T14:31:22;19.40;99.90
42617;DHT22;28250;52.320;0.360;2023-05-10T14:33:50;19.40;99.90
42617;DHT22;28250;52.320;0.360;2023-05-10T14:36:16;20.10;99.90
42617;DHT22;28250;52.320;0.360;2023-05-10T14:38:42;19.80;99.90
42617;DHT22;28250;52.320;0.360;2023-05-10T14:41:08;19.40;99.90
42617;DHT22;28250;52.320;0.360;2023-05-10T14:43:35;19.00;99.90
42617;DHT22;28250;52.320;0.360;2023-05-10T14:46:02;19.00;99.90
42617;DHT22;28250;52.320;0.360;2023-05-10T14:48:28;18.90;99.90
42617;DHT22;28250;52.320;0.360;2023-05-10T14:50:54;18.60;99.90
42617;DHT22;28250;52.320;0.360;2023-05-10T14:53:20;18.60;99.90
42617;DHT22;28250;52.320;0.360;2023-05-10T14:55:46;18.60;99.90
42617;DHT22;28250;52.320;0.360;2023-05-10T14:58:12;18.60;99.90
42617;DHT22;28250;52.320;0.360;2023-05-10T15:00:38;19.30;99.90
42617;DHT22;28250;52.320;0.360;2023-05-10T15:03:04;19.70;99.90
42617;DHT22;28250;52.320;0.360;2023-05-10T15:05:30;20.00;99.90
42617;DHT22;28250;52.320;0.360;2023-05-10T15:07:56;19.70;99.90
42617;DHT22;28250;52.320;0.360;2023-05-10T15:10:22;19.40;99.90
42617;DHT22;28250;52.320;0.360;2023-05-10T15:12:48;19.10;99.90
42617;DHT22;28250;52.320;0.360;2023-05-10T15:15:15;19.20;99.90
42617;DHT22;28250;52.320;0.360;2023-05-10T15:17:41;19.20;99.90
42617;DHT22;28250;52.320;0.360;2023-05-10T15:20:08;18.90;99.90
42617;DHT22;28250;52.320;0.360;2023-05-10T15:22:34;18.90;99.90
42617;DHT22;28250;52.320;0.360;2023-05-10T15:25:00;18.70;99.90
42617;DHT22;28250;52.320;0.360;2023-05-10T15:27:26;18.70;99.90
42617;DHT22;28250;52.320;0.360;2023-05-10T15:29:52;18.80;99.90
42617;DHT22;28250;52.320;0.360;2023-05-10T15:32:18;19.00;99.90
42617;DHT22;28250;52.320;0.360;2023-05-10T15:34:44;18.80;99.90
42617;DHT22;28250;52.320;0.360;2023-05-10T15:37:10;18.70;99.90
42617;DHT22;28250;52.320;0.360;2023-05-10T15:39:36;18.70;99.90
42617;DHT22;28250;52.320;0.360;2023-05-10T15:42:02;18.60;99.90
42617;DHT22;28250;52.320;0.360;2023-05-10T15:44:29;18.30;99.90
42617;DHT22;28250;52.320;0.360;2023-05-10T15:46:55;18.30;99.90
42617;DHT22;28250;52.320;0.360;2023-05-10T15:49:22;18.40;99.90
42617;DHT22;28250;52.320;0.360;2023-05-10T15:51:48;18.40;99.90
42617;DHT22;28250;52.320;0.360;2023-05-10T15:54:14;18.40;99.90
42617;DHT22;28250;52.320;0.360;2023-05-10T15:56:41;18.40;99.90
42617;DHT22;28250;52.320;0.360;2023-05-10T15:59:07;18.50;99.90
42617;DHT22;28250;52.320;0.360;2023-05-10T16:01:35;18.70;99.90
42617;DHT22;28250;52.320;0.360;2023-05-10T16:04:01;18.90;99.90
42617;DHT22;28250;52.320;0.360;2023-05-10T16:06:27;19.00;99.90
42617;DHT22;28250;52.320;0.360;2023-05-10T16:08:53;19.00;99.90
42617;DHT22;28250;52.320;0.360;2023-05-10T16:11:19;18.80;99.90
42617;DHT22;28250;52.320;0.360;2023-05-10T16:13:46;18.50;99.90
42617;DHT22;28250;52.320;0.360;2023-05-10T16:16:12;18.10;99.90
42617;DHT22;28250;52.320;0.360;2023-05-10T16:18:38;17.80;99.90
42617;DHT22;28250;52.320;0.360;2023-05-10T16:21:04;17.60;99.90
42617;DHT22;28250;52.320;0.360;2023-05-10T16:23:30;17.40;99.90
42617;DHT22;28250;52.320;0.360;2023-05-10T16:25:56;17.10;99.90
42617;DHT22;28250;52.320;0.360;2023-05-10T16:28:22;16.90;99.90
42617;DHT22;28250;52.320;0.360;2023-05-10T16:30:48;16.60;99.90